Time;durP1;ratioP1;P1;durP2;ratioP2;P2;SDS_P1;SDS_P2;PMS_P1;PMS_P2;Temp;Humidity;BMP_temperature;BMP_pressure;BME280_temperature;BME280_humidity;BME280_pressure;Samples;Min_cycle;Max_cycle;Signal;HPM_P1;HPM_P2
2023/04/27 00:01:51;;;;;;;6.10;3.30;;;;;;;;;;107604;277;39848;-35
2023/04/27 00:04:26;;;;;;;5.80;3.30;;;;;;;;;;107651;277;42937;-34
2023/04/27 00:07:02;;;;;;;5.90;3.30;;;;;;;;;;107625;285;46884;-34
2023/04/27 00:09:40;;;;;;;5.50;3.20;;;;;;;;;;107677;285;38799;-34
2023/04/27 00:12:17;;;;;;;6.10;3.60;;;;;;;;;;107637;285;39861;-34
2023/04/27 00:14:52;;;;;;;5.80;3.20;;;;;;;;;;107626;285;42932;-34
2023/04/27 00:17:31;;;;;;;6.10;3.50;;;;;;;;;;107635;283;48556;-34
2023/04/27 00:20:10;;;;;;;6.50;3.30;;;;;;;;;;107607;285;38838;-33
2023/04/27 00:22:47;;;;;;;6.40;3.50;;;;;;;;;;107642;283;39709;-33
2023/04/27 00:25:22;;;;;;;6.50;3.60;;;;;;;;;;107608;281;42941;-33
2023/04/27 00:27:59;;;;;;;5.40;3.30;;;;;;;;;;107652;285;42274;-33
2023/04/27 00:30:35;;;;;;;6.30;3.60;;;;;;;;;;107654;285;38962;-33
2023/04/27 00:33:10;;;;;;;5.60;3.40;;;;;;;;;;107618;285;39847;-33
2023/04/27 00:35:45;;;;;;;6.30;3.40;;;;;;;;;;107591;285;43239;-33
2023/04/27 00:38:20;;;;;;;5.60;3.30;;;;;;;;;;107657;285;42415;-33
2023/04/27 00:41:02;;;;;;;5.40;3.10;;;;;;;;;;107661;283;38751;-33
2023/04/27 00:43:43;;;;;;;5.20;3.20;;;;;;;;;;107682;285;39888;-34
2023/04/27 00:46:22;;;;;;;4.90;3.10;;;;;;;;;;107623;290;42920;-34
2023/04/27 00:49:01;;;;;;;5.50;3.20;;;;;;;;;;107646;283;42432;-34
2023/04/27 00:51:37;;;;;;;5.70;3.20;;;;;;;;;;107629;285;39796;-34
2023/04/27 00:54:14;;;;;;;5.70;3.20;;;;;;;;;;107567;285;40848;-34
2023/04/27 00:56:50;;;;;;;5.80;3.60;;;;;;;;;;107615;277;43070;-34
2023/04/27 00:59:24;;;;;;;5.80;3.40;;;;;;;;;;107638;283;42527;-33
2023/04/27 01:01:59;;;;;;;5.60;3.20;;;;;;;;;;107638;285;38910;-33
2023/04/27 01:04:36;;;;;;;6.30;3.20;;;;;;;;;;107640;283;39826;-33
2023/04/27 01:07:13;;;;;;;5.40;3.10;;;;;;;;;;107601;283;43049;-33
2023/04/27 01:09:51;;;;;;;6.60;3.50;;;;;;;;;;107631;283;42505;-33
2023/04/27 01:12:26;;;;;;;5.70;3.20;;;;;;;;;;107643;283;39815;-33
2023/04/27 01:15:02;;;;;;;6.00;3.50;;;;;;;;;;107662;284;40797;-33
2023/04/27 01:17:38;;;;;;;6.00;3.20;;;;;;;;;;107585;285;43315;-33
2023/04/27 01:20:14;;;;;;;6.00;3.10;;;;;;;;;;107636;285;42319;-33
2023/04/27 01:22:48;;;;;;;5.50;3.10;;;;;;;;;;107663;285;39242;-33
2023/04/27 01:25:23;;;;;;;5.70;3.00;;;;;;;;;;107619;283;39730;-33
2023/04/27 01:27:58;;;;;;;5.50;3.20;;;;;;;;;;106936;283;897246;-33
2023/04/27 01:30:32;;;;;;;5.50;3.30;;;;;;;;;;107659;285;42204;-33
2023/04/27 01:33:08;;;;;;;5.80;3.30;;;;;;;;;;107630;283;39157;-33
2023/04/27 01:35:42;;;;;;;6.00;3.00;;;;;;;;;;107647;283;40734;-33
2023/04/27 01:38:18;;;;;;;5.60;3.30;;;;;;;;;;107612;285;44084;-33
2023/04/27 01:41:00;;;;;;;5.60;3.30;;;;;;;;;;107248;286;407434;-33
2023/04/27 01:43:35;;;;;;;5.60;3.00;;;;;;;;;;107578;285;38842;-33
2023/04/27 01:46:11;;;;;;;5.90;3.10;;;;;;;;;;107654;290;39692;-33
2023/04/27 01:48:47;;;;;;;5.30;3.40;;;;;;;;;;107603;285;42682;-33
2023/04/27 01:51:22;;;;;;;5.20;3.10;;;;;;;;;;107635;283;42186;-33
2023/04/27 01:53:56;;;;;;;5.40;3.00;;;;;;;;;;107639;285;38813;-33
2023/04/27 01:56:30;;;;;;;6.10;3.40;;;;;;;;;;107618;283;39687;-33
2023/04/27 01:59:07;;;;;;;5.60;3.00;;;;;;;;;;107595;285;42955;-33
2023/04/27 02:01:44;;;;;;;5.70;3.30;;;;;;;;;;107647;277;43628;-33
2023/04/27 02:04:19;;;;;;;5.40;3.10;;;;;;;;;;107633;285;38820;-33
2023/04/27 02:06:57;;;;;;;5.50;3.40;;;;;;;;;;107585;285;40991;-33
2023/04/27 02:09:33;;;;;;;5.50;3.20;;;;;;;;;;107697;283;49706;-33
2023/04/27 02:12:08;;;;;;;5.90;3.40;;;;;;;;;;107656;286;43682;-33
2023/04/27 02:14:45;;;;;;;6.00;3.40;;;;;;;;;;107650;283;38795;-33
2023/04/27 02:17:23;;;;;;;5.60;3.10;;;;;;;;;;107605;285;40935;-33
2023/04/27 02:20:00;;;;;;;5.00;3.10;;;;;;;;;;107646;285;50625;-33
2023/04/27 02:22:35;;;;;;;5.70;3.10;;;;;;;;;;107600;285;42211;-33
2023/04/27 02:25:11;;;;;;;5.50;3.20;;;;;;;;;;106997;283;898942;-33
2023/04/27 02:27:47;;;;;;;5.60;3.20;;;;;;;;;;107652;283;39731;-33
2023/04/27 02:30:22;;;;;;;5.60;3.20;;;;;;;;;;107648;285;43039;-33
2023/04/27 02:32:58;;;;;;;5.60;3.20;;;;;;;;;;107658;285;42238;-33
2023/04/27 02:35:34;;;;;;;5.40;3.00;;;;;;;;;;107670;283;38850;-33
2023/04/27 02:38:13;;;;;;;5.80;3.30;;;;;;;;;;107609;283;39856;-33
2023/04/27 02:40:47;;;;;;;5.60;3.10;;;;;;;;;;107639;283;42894;-33
2023/04/27 02:43:22;;;;;;;5.60;3.20;;;;;;;;;;107650;282;42213;-33
2023/04/27 02:45:56;;;;;;;5.50;3.10;;;;;;;;;;107606;285;38962;-33
2023/04/27 02:48:34;;;;;;;5.40;3.10;;;;;;;;;;107590;285;39806;-33
2023/04/27 02:51:09;;;;;;;6.00;3.30;;;;;;;;;;107651;283;42938;-33
2023/04/27 02:53:43;;;;;;;5.90;3.20;;;;;;;;;;107656;285;42420;-33
2023/04/27 02:56:19;;;;;;;5.60;3.30;;;;;;;;;;107636;286;39857;-33
2023/04/27 02:58:57;;;;;;;5.30;3.00;;;;;;;;;;107630;285;39748;-33
2023/04/27 03:01:32;;;;;;;5.10;2.90;;;;;;;;;;107620;277;43018;-33
2023/04/27 03:04:07;;;;;;;5.10;3.20;;;;;;;;;;107616;283;42443;-33
2023/04/27 03:06:44;;;;;;;5.30;3.10;;;;;;;;;;107664;285;38923;-33
2023/04/27 03:09:19;;;;;;;5.40;3.20;;;;;;;;;;107611;285;39707;-33
2023/04/27 03:11:53;;;;;;;5.20;3.20;;;;;;;;;;107639;284;44304;-33
2023/04/27 03:14:29;;;;;;;5.60;3.30;;;;;;;;;;107659;285;42146;-33
2023/04/27 03:17:04;;;;;;;5.60;3.10;;;;;;;;;;107676;290;38940;-33
2023/04/27 03:19:38;;;;;;;5.80;3.30;;;;;;;;;;107631;283;40191;-33
2023/04/27 03:22:12;;;;;;;6.40;3.00;;;;;;;;;;107666;285;43041;-33
2023/04/27 03:24:46;;;;;;;5.60;3.00;;;;;;;;;;107675;285;42182;-34
2023/04/27 03:27:20;;;;;;;5.80;3.30;;;;;;;;;;107669;285;39831;-33
2023/04/27 03:29:55;;;;;;;6.60;3.10;;;;;;;;;;107619;285;40910;-33
2023/04/27 03:32:31;;;;;;;5.50;3.10;;;;;;;;;;107647;277;44228;-33
2023/04/27 03:35:07;;;;;;;6.20;3.40;;;;;;;;;;107653;285;41884;-33
2023/04/27 03:37:44;;;;;;;5.90;3.00;;;;;;;;;;107624;283;38802;-33
2023/04/27 03:40:19;;;;;;;6.30;3.30;;;;;;;;;;107617;277;39736;-33
2023/04/27 03:42:55;;;;;;;6.20;3.00;;;;;;;;;;107618;285;44255;-33
2023/04/27 03:45:31;;;;;;;5.90;3.20;;;;;;;;;;107624;285;44629;-33
2023/04/27 03:48:07;;;;;;;5.60;3.30;;;;;;;;;;107651;285;40219;-33
2023/04/27 03:50:41;;;;;;;5.60;3.20;;;;;;;;;;107614;285;40092;-33
2023/04/27 03:53:19;;;;;;;5.60;3.30;;;;;;;;;;107635;285;45328;-33
2023/04/27 03:55:53;;;;;;;5.90;3.40;;;;;;;;;;107622;285;42339;-33
2023/04/27 03:58:30;;;;;;;6.20;3.20;;;;;;;;;;107636;277;38855;-33
2023/04/27 04:01:05;;;;;;;6.20;3.50;;;;;;;;;;107596;285;40878;-33
2023/04/27 04:03:40;;;;;;;6.20;3.60;;;;;;;;;;107652;285;42870;-33
2023/04/27 04:06:15;;;;;;;5.80;3.00;;;;;;;;;;107649;285;42354;-33
2023/04/27 04:08:49;;;;;;;5.30;2.90;;;;;;;;;;107670;285;39060;-33
2023/04/27 04:11:23;;;;;;;5.80;3.30;;;;;;;;;;107608;282;39879;-33
2023/04/27 04:14:00;;;;;;;6.00;3.40;;;;;;;;;;107653;290;43060;-33
2023/04/27 04:16:34;;;;;;;6.10;3.30;;;;;;;;;;107638;277;42526;-33
2023/04/27 04:19:10;;;;;;;6.00;3.40;;;;;;;;;;107635;282;38714;-33
2023/04/27 04:21:46;;;;;;;6.10;3.40;;;;;;;;;;107602;282;39947;-33
2023/04/27 04:24:20;;;;;;;6.00;3.60;;;;;;;;;;107636;283;43071;-33
2023/04/27 04:26:57;;;;;;;6.20;3.60;;;;;;;;;;107676;285;42164;-33
2023/04/27 04:29:33;;;;;;;5.70;3.30;;;;;;;;;;107633;283;38785;-33
2023/04/27 04:32:11;;;;;;;5.60;3.50;;;;;;;;;;107612;285;39809;-33
2023/04/27 04:34:46;;;;;;;6.30;3.40;;;;;;;;;;107644;286;42773;-33
2023/04/27 04:37:20;;;;;;;6.20;3.70;;;;;;;;;;107632;277;42272;-33
2023/04/27 04:39:54;;;;;;;6.60;3.60;;;;;;;;;;107645;285;38909;-33
2023/04/27 04:42:29;;;;;;;6.10;3.50;;;;;;;;;;107636;283;39862;-33
2023/04/27 04:45:04;;;;;;;5.90;3.60;;;;;;;;;;107667;283;43376;-34
2023/04/27 04:47:39;;;;;;;5.70;3.50;;;;;;;;;;107678;285;42141;-34
2023/04/27 04:50:13;;;;;;;5.80;3.60;;;;;;;;;;107625;285;39932;-34
2023/04/27 04:52:47;;;;;;;5.80;3.40;;;;;;;;;;107739;283;47519;-34
2023/04/27 04:55:22;;;;;;;6.30;3.60;;;;;;;;;;107646;283;44266;-34
2023/04/27 04:57:58;;;;;;;6.40;3.50;;;;;;;;;;107683;285;43392;-34
2023/04/27 05:00:32;;;;;;;7.10;4.00;;;;;;;;;;107655;285;40027;-34
2023/04/27 05:03:06;;;;;;;5.90;3.80;;;;;;;;;;107634;285;46521;-34
2023/04/27 05:05:41;;;;;;;6.70;3.80;;;;;;;;;;107645;285;44250;-34
2023/04/27 05:08:18;;;;;;;6.80;3.70;;;;;;;;;;107653;286;42168;-33
2023/04/27 05:10:55;;;;;;;6.50;3.80;;;;;;;;;;107659;285;38806;-33
2023/04/27 05:13:29;;;;;;;6.50;3.60;;;;;;;;;;107781;284;45419;-33
2023/04/27 05:16:08;;;;;;;6.20;3.80;;;;;;;;;;107627;285;42673;-33
2023/04/27 05:18:42;;;;;;;5.80;3.70;;;;;;;;;;107637;283;42176;-33
2023/04/27 05:21:22;;;;;;;6.70;4.00;;;;;;;;;;107508;290;38828;-33
2023/04/27 05:23:59;;;;;;;6.20;3.60;;;;;;;;;;107610;285;47088;-33
2023/04/27 05:26:33;;;;;;;6.30;3.90;;;;;;;;;;107655;285;43310;-33
2023/04/27 05:29:08;;;;;;;6.40;3.80;;;;;;;;;;107524;285;195457;-33
2023/04/27 05:31:43;;;;;;;5.80;3.50;;;;;;;;;;107613;285;38951;-33
2023/04/27 05:34:19;;;;;;;6.50;3.90;;;;;;;;;;107675;285;46127;-33
2023/04/27 05:36:55;;;;;;;7.10;3.90;;;;;;;;;;107644;285;43032;-33
2023/04/27 05:39:31;;;;;;;6.20;3.60;;;;;;;;;;107655;283;42185;-33
2023/04/27 05:42:06;;;;;;;6.30;3.60;;;;;;;;;;107603;283;38903;-33
2023/04/27 05:44:42;;;;;;;6.50;3.70;;;;;;;;;;107646;285;39739;-33
2023/04/27 05:47:19;;;;;;;6.80;3.60;;;;;;;;;;107605;285;43065;-33
2023/04/27 05:49:55;;;;;;;6.50;3.70;;;;;;;;;;107617;283;42263;-33
2023/04/27 05:52:31;;;;;;;6.40;3.70;;;;;;;;;;107611;285;38989;-33
2023/04/27 05:55:07;;;;;;;6.00;3.70;;;;;;;;;;107629;285;40027;-33
2023/04/27 05:57:42;;;;;;;6.70;4.00;;;;;;;;;;107645;285;42923;-33
2023/04/27 06:00:21;;;;;;;7.60;4.10;;;;;;;;;;107640;285;42452;-33
2023/04/27 06:02:56;;;;;;;7.10;4.30;;;;;;;;;;107617;285;41005;-33
2023/04/27 06:05:36;;;;;;;8.50;4.80;;;;;;;;;;107648;285;39724;-33
2023/04/27 06:08:11;;;;;;;7.40;4.40;;;;;;;;;;107635;285;43378;-34
2023/04/27 06:10:46;;;;;;;8.20;4.50;;;;;;;;;;107659;285;42222;-34
2023/04/27 06:13:21;;;;;;;8.60;4.60;;;;;;;;;;107640;285;38862;-34
2023/04/27 06:15:56;;;;;;;8.00;4.70;;;;;;;;;;107621;285;39809;-34
2023/04/27 06:18:33;;;;;;;7.20;4.20;;;;;;;;;;107626;285;42909;-34
2023/04/27 06:21:08;;;;;;;8.20;4.40;;;;;;;;;;107633;277;42258;-34
2023/04/27 06:23:44;;;;;;;8.40;4.40;;;;;;;;;;107594;285;38758;-34
2023/04/27 06:26:20;;;;;;;7.90;4.30;;;;;;;;;;107632;285;39856;-34
2023/04/27 06:28:56;;;;;;;8.50;4.40;;;;;;;;;;107626;285;42911;-34
2023/04/27 06:31:31;;;;;;;8.40;4.80;;;;;;;;;;107604;285;44233;-34
2023/04/27 06:34:09;;;;;;;8.10;4.50;;;;;;;;;;107618;283;38976;-34
2023/04/27 06:36:44;;;;;;;8.50;4.40;;;;;;;;;;107613;285;41773;-34
2023/04/27 06:39:18;;;;;;;7.80;4.30;;;;;;;;;;107643;285;42675;-34
2023/04/27 06:41:57;;;;;;;8.80;4.60;;;;;;;;;;107651;285;43284;-34
2023/04/27 06:44:32;;;;;;;9.60;5.00;;;;;;;;;;107591;283;38768;-33
2023/04/27 06:47:06;;;;;;;7.90;4.50;;;;;;;;;;107645;283;39692;-33
2023/04/27 06:49:42;;;;;;;7.90;4.40;;;;;;;;;;107556;285;175305;-33
2023/04/27 06:52:17;;;;;;;7.30;4.60;;;;;;;;;;107646;286;42410;-33
2023/04/27 06:54:51;;;;;;;8.20;4.70;;;;;;;;;;107616;285;38807;-33
2023/04/27 06:57:25;;;;;;;8.40;4.60;;;;;;;;;;107625;285;39686;-33
2023/04/27 07:00:01;;;;;;;8.20;4.60;;;;;;;;;;107646;283;42696;-33
2023/04/27 07:02:36;;;;;;;8.20;4.50;;;;;;;;;;107614;285;43528;-33
2023/04/27 07:05:11;;;;;;;7.90;4.60;;;;;;;;;;107622;285;38792;-33
2023/04/27 07:07:46;;;;;;;7.50;4.50;;;;;;;;;;107653;286;40627;-33
2023/04/27 07:10:20;;;;;;;8.00;4.50;;;;;;;;;;107613;283;43430;-33
2023/04/27 07:12:54;;;;;;;8.30;4.50;;;;;;;;;;107632;283;44254;-33
2023/04/27 07:15:29;;;;;;;8.40;4.60;;;;;;;;;;107605;285;38832;-33
2023/04/27 07:18:04;;;;;;;8.30;4.70;;;;;;;;;;107642;285;39895;-33
2023/04/27 07:20:39;;;;;;;6.90;4.30;;;;;;;;;;107639;283;44978;-33
2023/04/27 07:23:14;;;;;;;7.30;4.10;;;;;;;;;;107632;283;42225;-33
2023/04/27 07:25:50;;;;;;;7.10;4.60;;;;;;;;;;107626;285;38927;-33
2023/04/27 07:28:25;;;;;;;8.60;4.70;;;;;;;;;;107631;285;39875;-34
2023/04/27 07:31:04;;;;;;;7.50;4.30;;;;;;;;;;107629;286;42913;-34
2023/04/27 07:33:39;;;;;;;8.10;4.10;;;;;;;;;;107659;283;42336;-34
2023/04/27 07:36:16;;;;;;;8.70;4.90;;;;;;;;;;107623;283;39076;-34
2023/04/27 07:38:51;;;;;;;7.80;4.20;;;;;;;;;;107652;285;39722;-34
2023/04/27 07:41:29;;;;;;;7.20;4.40;;;;;;;;;;107642;285;42923;-34
2023/04/27 07:44:05;;;;;;;7.40;4.30;;;;;;;;;;107650;281;43224;-34
2023/04/27 07:46:41;;;;;;;7.40;4.50;;;;;;;;;;107631;277;38678;-34
2023/04/27 07:49:17;;;;;;;7.60;4.70;;;;;;;;;;107635;281;39713;-34
2023/04/27 07:51:52;;;;;;;7.00;4.10;;;;;;;;;;107605;285;43146;-34
2023/04/27 07:54:29;;;;;;;6.80;4.00;;;;;;;;;;107646;285;42262;-34
2023/04/27 07:57:10;;;;;;;6.80;3.90;;;;;;;;;;107606;285;44477;-34
2023/04/27 07:59:46;;;;;;;6.70;4.00;;;;;;;;;;107661;285;39683;-33
2023/04/27 08:02:21;;;;;;;7.70;4.00;;;;;;;;;;107627;285;43907;-33
2023/04/27 08:04:57;;;;;;;6.60;4.30;;;;;;;;;;107609;283;42128;-33
2023/04/27 08:07:33;;;;;;;7.80;4.50;;;;;;;;;;107634;285;44990;-33
2023/04/27 08:10:13;;;;;;;6.90;4.00;;;;;;;;;;107640;285;39858;-33
2023/04/27 08:12:48;;;;;;;6.90;3.90;;;;;;;;;;107644;285;43177;-33
2023/04/27 08:15:22;;;;;;;7.20;4.00;;;;;;;;;;107570;285;42201;-33
2023/04/27 08:17:56;;;;;;;7.30;4.20;;;;;;;;;;107677;285;38737;-33
2023/04/27 08:20:30;;;;;;;6.90;4.10;;;;;;;;;;107633;285;39720;-33
2023/04/27 08:23:05;;;;;;;6.30;3.70;;;;;;;;;;107518;277;175638;-33
2023/04/27 08:25:41;;;;;;;7.00;3.70;;;;;;;;;;107611;283;42156;-33
2023/04/27 08:28:16;;;;;;;6.70;4.00;;;;;;;;;;107620;283;38558;-33
2023/04/27 08:30:51;;;;;;;6.60;3.90;;;;;;;;;;107631;283;40729;-33
2023/04/27 08:33:28;;;;;;;6.90;4.00;;;;;;;;;;107640;283;43161;-33
2023/04/27 08:36:03;;;;;;;7.10;4.20;;;;;;;;;;107601;281;43354;-33
2023/04/27 08:38:38;;;;;;;7.00;4.00;;;;;;;;;;107562;285;38741;-33
2023/04/27 08:41:17;;;;;;;6.20;3.70;;;;;;;;;;107640;285;39739;-33
2023/04/27 08:43:55;;;;;;;6.20;3.90;;;;;;;;;;107641;286;42948;-35
2023/04/27 08:46:32;;;;;;;6.20;3.60;;;;;;;;;;107606;285;44328;-35
2023/04/27 08:49:07;;;;;;;6.50;3.70;;;;;;;;;;107651;285;38556;-34
2023/04/27 08:51:43;;;;;;;6.60;3.60;;;;;;;;;;107639;285;41021;-35
2023/04/27 08:54:17;;;;;;;7.60;3.90;;;;;;;;;;107662;282;43355;-35
2023/04/27 08:56:51;;;;;;;6.10;3.70;;;;;;;;;;107627;285;42149;-35
2023/04/27 08:59:25;;;;;;;6.20;3.70;;;;;;;;;;107648;283;38824;-35
2023/04/27 09:01:59;;;;;;;6.30;3.50;;;;;;;;;;107641;282;39445;-34
2023/04/27 09:04:43;;;;;;;7.20;3.90;;;;;;;;;;107628;285;42862;-35
2023/04/27 09:07:19;;;;;;;6.10;3.40;;;;;;;;;;107595;285;42442;-34
2023/04/27 09:10:03;;;;;;;6.00;3.60;;;;;;;;;;107663;284;39014;-34
2023/04/27 09:12:39;;;;;;;5.70;3.40;;;;;;;;;;107661;285;39703;-34
2023/04/27 09:15:13;;;;;;;6.10;3.50;;;;;;;;;;107611;286;43835;-35
2023/04/27 09:17:47;;;;;;;5.40;3.30;;;;;;;;;;107566;286;42176;-34
2023/04/27 09:20:22;;;;;;;5.70;3.40;;;;;;;;;;107524;285;175242;-33
2023/04/27 09:22:58;;;;;;;6.00;3.30;;;;;;;;;;107598;285;39798;-34
2023/04/27 09:25:35;;;;;;;5.50;3.10;;;;;;;;;;107621;283;43279;-34
2023/04/27 09:28:16;;;;;;;5.20;3.10;;;;;;;;;;107604;285;42781;-34
2023/04/27 09:30:57;;;;;;;5.40;3.10;;;;;;;;;;106982;285;896375;-34
2023/04/27 09:33:34;;;;;;;5.20;3.00;;;;;;;;;;107627;285;41109;-33
2023/04/27 09:36:15;;;;;;;5.30;3.00;;;;;;;;;;107633;285;42949;-33
2023/04/27 09:38:54;;;;;;;5.70;3.00;;;;;;;;;;107622;283;42171;-34
2023/04/27 09:41:28;;;;;;;5.40;2.80;;;;;;;;;;107086;284;521212;-35
2023/04/27 09:44:03;;;;;;;5.20;2.80;;;;;;;;;;107462;285;41377;-33
2023/04/27 09:46:44;;;;;;;4.80;2.70;;;;;;;;;;107574;285;42752;-33
2023/04/27 09:49:22;;;;;;;5.10;2.70;;;;;;;;;;107585;285;42145;-33
2023/04/27 09:51:58;;;;;;;5.20;2.90;;;;;;;;;;107647;283;38821;-33
2023/04/27 09:54:36;;;;;;;5.50;3.00;;;;;;;;;;107662;285;40765;-34
2023/04/27 09:57:24;;;;;;;5.00;2.80;;;;;;;;;;107638;283;43431;-34
2023/04/27 10:00:21;;;;;;;5.00;2.50;;;;;;;;;;107667;286;49484;-34
2023/04/27 10:03:13;;;;;;;5.20;2.80;;;;;;;;;;107665;285;40065;-34
2023/04/27 10:06:27;;;;;;;5.40;2.80;;;;;;;;;;107667;285;39701;-34
2023/04/27 10:09:04;;;;;;;5.30;2.80;;;;;;;;;;107502;283;43014;-34
2023/04/27 10:11:46;;;;;;;4.80;2.30;;;;;;;;;;107646;289;42178;-34
2023/04/27 10:14:23;;;;;;;4.40;2.40;;;;;;;;;;107666;285;38814;-34
2023/04/27 10:17:02;;;;;;;5.10;2.60;;;;;;;;;;107000;285;896257;-34
2023/04/27 10:19:40;;;;;;;4.90;2.60;;;;;;;;;;107576;285;43147;-34
2023/04/27 10:22:16;;;;;;;4.50;2.50;;;;;;;;;;107662;286;42922;-34
2023/04/27 10:24:52;;;;;;;5.20;2.40;;;;;;;;;;107632;285;39730;-34
2023/04/27 10:27:26;;;;;;;5.20;2.60;;;;;;;;;;107645;283;39892;-34
2023/04/27 10:30:13;;;;;;;4.90;2.50;;;;;;;;;;107524;286;42956;-34
2023/04/27 10:32:57;;;;;;;5.10;2.30;;;;;;;;;;107662;283;42290;-34
2023/04/27 10:35:42;;;;;;;5.30;2.40;;;;;;;;;;107636;285;39907;-34
2023/04/27 10:38:22;;;;;;;4.90;2.40;;;;;;;;;;107614;283;40832;-34
2023/04/27 10:41:02;;;;;;;4.90;2.50;;;;;;;;;;107677;285;50236;-34
2023/04/27 10:43:39;;;;;;;5.20;2.60;;;;;;;;;;107628;287;42357;-34
2023/04/27 10:46:15;;;;;;;4.30;2.30;;;;;;;;;;107634;285;39799;-34
2023/04/27 10:48:51;;;;;;;4.40;2.20;;;;;;;;;;107613;285;40887;-34
2023/04/27 10:51:29;;;;;;;4.40;2.20;;;;;;;;;;106984;285;918030;-34
2023/04/27 10:54:06;;;;;;;4.70;2.60;;;;;;;;;;107658;285;43405;-34
2023/04/27 10:56:42;;;;;;;4.20;2.10;;;;;;;;;;107669;285;40066;-34
2023/04/27 10:59:17;;;;;;;4.50;2.10;;;;;;;;;;107621;285;40763;-34
2023/04/27 11:01:55;;;;;;;4.10;2.20;;;;;;;;;;107637;283;44057;-34
2023/04/27 11:04:40;;;;;;;4.20;2.00;;;;;;;;;;107636;285;42769;-34
2023/04/27 11:07:26;;;;;;;4.00;2.20;;;;;;;;;;107680;285;39933;-34
2023/04/27 11:10:02;;;;;;;3.90;2.00;;;;;;;;;;107613;281;39787;-34
2023/04/27 11:12:37;;;;;;;4.70;2.30;;;;;;;;;;107635;283;42949;-34
2023/04/27 11:15:13;;;;;;;4.50;2.20;;;;;;;;;;107627;285;43302;-34
2023/04/27 11:17:47;;;;;;;4.80;2.00;;;;;;;;;;107674;283;39629;-34
2023/04/27 11:20:30;;;;;;;4.00;2.00;;;;;;;;;;107626;285;39760;-34
2023/04/27 11:23:04;;;;;;;4.40;2.20;;;;;;;;;;107659;285;42921;-33
2023/04/27 11:25:38;;;;;;;4.00;2.10;;;;;;;;;;107558;283;42122;-36
2023/04/27 11:28:22;;;;;;;4.00;2.20;;;;;;;;;;107688;285;39948;-33
2023/04/27 11:31:03;;;;;;;3.80;1.90;;;;;;;;;;107561;277;39775;-34
2023/04/27 11:33:38;;;;;;;4.70;2.10;;;;;;;;;;107579;286;45339;-34
2023/04/27 11:36:21;;;;;;;4.40;2.20;;;;;;;;;;107626;289;42125;-35
2023/04/27 11:39:00;;;;;;;4.20;2.00;;;;;;;;;;107610;282;38765;-35
2023/04/27 11:41:38;;;;;;;4.30;2.00;;;;;;;;;;107589;283;39859;-35
2023/04/27 11:44:14;;;;;;;4.10;2.10;;;;;;;;;;107639;285;44072;-34
2023/04/27 11:46:49;;;;;;;4.30;1.90;;;;;;;;;;107605;285;42145;-33
2023/04/27 11:49:23;;;;;;;3.80;1.90;;;;;;;;;;107526;283;175229;-34
2023/04/27 11:52:00;;;;;;;4.00;2.00;;;;;;;;;;107572;283;40984;-35
2023/04/27 11:54:40;;;;;;;4.30;1.90;;;;;;;;;;107604;282;44050;-33
2023/04/27 11:57:14;;;;;;;4.00;1.80;;;;;;;;;;107607;285;43297;-34
2023/04/27 11:59:49;;;;;;;4.10;1.90;;;;;;;;;;107621;283;39091;-33
2023/04/27 12:02:26;;;;;;;3.60;1.90;;;;;;;;;;107597;283;45461;-34
2023/04/27 12:05:01;;;;;;;4.90;2.00;;;;;;;;;;107635;284;42739;-34
2023/04/27 12:07:36;;;;;;;4.40;1.80;;;;;;;;;;107613;282;43288;-34
2023/04/27 12:10:11;;;;;;;4.00;1.80;;;;;;;;;;107618;285;38749;-33
2023/04/27 12:12:47;;;;;;;4.00;1.80;;;;;;;;;;107739;282;46488;-35
2023/04/27 12:15:24;;;;;;;3.90;1.60;;;;;;;;;;107480;285;196085;-36
2023/04/27 12:18:00;;;;;;;3.80;1.60;;;;;;;;;;107576;285;42138;-35
2023/04/27 12:20:36;;;;;;;3.60;1.80;;;;;;;;;;107588;277;38776;-36
2023/04/27 12:23:11;;;;;;;4.30;1.80;;;;;;;;;;107637;284;45942;-35
2023/04/27 12:25:49;;;;;;;3.80;1.60;;;;;;;;;;107610;277;42933;-35
2023/04/27 12:28:23;;;;;;;5.00;1.90;;;;;;;;;;107619;285;42138;-34
2023/04/27 12:30:59;;;;;;;3.60;1.60;;;;;;;;;;107618;285;38766;-35
2023/04/27 12:33:34;;;;;;;3.50;1.70;;;;;;;;;;107567;285;46219;-36
2023/04/27 12:36:09;;;;;;;4.50;1.80;;;;;;;;;;107614;284;43020;-34
2023/04/27 12:38:47;;;;;;;3.60;1.60;;;;;;;;;;107616;283;42300;-35
2023/04/27 12:41:22;;;;;;;4.10;1.70;;;;;;;;;;107606;283;38790;-33
2023/04/27 12:43:58;;;;;;;3.60;1.60;;;;;;;;;;107636;283;40178;-33
2023/04/27 12:46:32;;;;;;;3.60;1.70;;;;;;;;;;107632;285;43127;-33
2023/04/27 12:49:09;;;;;;;3.20;1.50;;;;;;;;;;107616;285;42165;-33
2023/04/27 12:51:46;;;;;;;3.90;1.60;;;;;;;;;;107590;285;38810;-33
2023/04/27 12:54:21;;;;;;;3.70;1.70;;;;;;;;;;107596;285;40006;-33
2023/04/27 12:56:55;;;;;;;3.70;1.70;;;;;;;;;;107660;277;43004;-33
2023/04/27 12:59:29;;;;;;;3.30;1.70;;;;;;;;;;107589;277;42242;-33
2023/04/27 13:02:05;;;;;;;4.00;1.70;;;;;;;;;;107567;283;38964;-33
2023/04/27 13:04:40;;;;;;;4.00;1.60;;;;;;;;;;107472;286;39739;-33
2023/04/27 13:07:16;;;;;;;3.50;1.60;;;;;;;;;;107627;285;42955;-33
2023/04/27 13:09:53;;;;;;;4.40;1.70;;;;;;;;;;107583;277;42351;-33
2023/04/27 13:12:31;;;;;;;3.50;1.50;;;;;;;;;;107584;285;39048;-33
2023/04/27 13:15:09;;;;;;;3.90;1.60;;;;;;;;;;107597;285;39784;-33
2023/04/27 13:17:44;;;;;;;3.80;1.40;;;;;;;;;;107501;285;175604;-33
2023/04/27 13:20:18;;;;;;;3.70;1.60;;;;;;;;;;107581;285;42487;-35
2023/04/27 13:22:52;;;;;;;3.20;1.50;;;;;;;;;;107567;281;39804;-34
2023/04/27 13:25:28;;;;;;;4.00;1.60;;;;;;;;;;107589;282;40191;-34
2023/04/27 13:28:02;;;;;;;3.50;1.50;;;;;;;;;;107613;285;43231;-34
2023/04/27 13:30:37;;;;;;;3.40;1.50;;;;;;;;;;107621;283;42262;-34
2023/04/27 13:33:15;;;;;;;3.40;1.40;;;;;;;;;;107566;286;38873;-34
2023/04/27 13:35:57;;;;;;;3.20;1.20;;;;;;;;;;107570;283;39724;-34
2023/04/27 13:38:31;;;;;;;3.50;1.40;;;;;;;;;;107587;285;44105;-35
2023/04/27 13:41:07;;;;;;;3.60;1.70;;;;;;;;;;107620;285;42176;-35
2023/04/27 13:43:43;;;;;;;3.70;1.60;;;;;;;;;;107616;284;38928;-35
2023/04/27 13:46:19;;;;;;;3.10;1.20;;;;;;;;;;107621;285;40909;-35
2023/04/27 13:48:54;;;;;;;3.60;1.50;;;;;;;;;;107602;283;44854;-36
2023/04/27 13:51:28;;;;;;;3.00;1.30;;;;;;;;;;107628;285;43262;-36
2023/04/27 13:54:02;;;;;;;3.70;1.40;;;;;;;;;;107576;283;39935;-36
2023/04/27 13:56:37;;;;;;;4.10;1.60;;;;;;;;;;107643;285;40866;-34
2023/04/27 13:59:14;;;;;;;3.80;1.50;;;;;;;;;;107620;285;44055;-34
2023/04/27 14:01:50;;;;;;;4.50;1.50;;;;;;;;;;107603;285;42239;-33
2023/04/27 14:04:25;;;;;;;4.20;1.60;;;;;;;;;;107593;285;39119;-35
2023/04/27 14:07:00;;;;;;;3.70;1.60;;;;;;;;;;107610;285;40925;-36
2023/04/27 14:09:34;;;;;;;3.90;1.40;;;;;;;;;;107589;282;44149;-36
2023/04/27 14:12:09;;;;;;;3.10;1.50;;;;;;;;;;107600;285;42294;-35
2023/04/27 14:14:43;;;;;;;3.50;1.50;;;;;;;;;;107486;281;175348;-35
2023/04/27 14:17:17;;;;;;;3.40;1.50;;;;;;;;;;107648;285;39697;-36
2023/04/27 14:19:53;;;;;;;4.00;1.60;;;;;;;;;;107619;277;45299;-35
2023/04/27 14:22:32;;;;;;;3.40;1.40;;;;;;;;;;107634;285;42192;-36
2023/04/27 14:25:08;;;;;;;3.50;1.40;;;;;;;;;;107567;285;39006;-35
2023/04/27 14:27:42;;;;;;;3.20;1.40;;;;;;;;;;107672;286;39738;-35
2023/04/27 14:30:17;;;;;;;3.90;1.40;;;;;;;;;;107602;283;43303;-35
2023/04/27 14:32:52;;;;;;;3.10;1.30;;;;;;;;;;107615;284;42774;-35
2023/04/27 14:35:27;;;;;;;3.60;1.30;;;;;;;;;;107612;281;38777;-35
2023/04/27 14:38:02;;;;;;;3.20;1.20;;;;;;;;;;107649;285;39688;-35
2023/04/27 14:40:36;;;;;;;2.90;1.40;;;;;;;;;;107605;285;42929;-35
2023/04/27 14:43:12;;;;;;;3.20;1.20;;;;;;;;;;107616;282;42240;-35
2023/04/27 14:45:46;;;;;;;2.90;1.20;;;;;;;;;;107604;285;39010;-35
2023/04/27 14:48:31;;;;;;;3.30;1.10;;;;;;;;;;107613;282;39842;-35
2023/04/27 14:51:08;;;;;;;3.50;1.20;;;;;;;;;;107599;284;42896;-35
2023/04/27 14:53:45;;;;;;;3.30;1.30;;;;;;;;;;107600;285;42278;-35
2023/04/27 14:56:23;;;;;;;3.60;1.20;;;;;;;;;;106925;283;897267;-35
2023/04/27 14:58:57;;;;;;;2.90;1.20;;;;;;;;;;107628;285;40896;-35
2023/04/27 15:01:32;;;;;;;3.20;1.20;;;;;;;;;;107596;283;42988;-35
2023/04/27 15:04:11;;;;;;;3.50;1.30;;;;;;;;;;107627;285;44373;-35
2023/04/27 15:06:45;;;;;;;3.00;1.20;;;;;;;;;;107624;285;44734;-35
2023/04/27 15:09:19;;;;;;;3.50;1.10;;;;;;;;;;107579;285;39738;-35
2023/04/27 15:11:56;;;;;;;3.00;1.20;;;;;;;;;;107605;277;44361;-35
2023/04/27 15:14:31;;;;;;;3.30;1.10;;;;;;;;;;107611;285;42315;-35
2023/04/27 15:17:06;;;;;;;3.10;1.20;;;;;;;;;;107613;285;44659;-35
2023/04/27 15:19:41;;;;;;;2.90;1.20;;;;;;;;;;107603;285;39698;-35
2023/04/27 15:22:16;;;;;;;3.10;1.20;;;;;;;;;;107601;285;42943;-35
2023/04/27 15:24:51;;;;;;;3.80;1.10;;;;;;;;;;107560;283;42173;-35
2023/04/27 15:27:25;;;;;;;3.10;1.10;;;;;;;;;;107587;283;45179;-35
2023/04/27 15:30:02;;;;;;;3.20;1.20;;;;;;;;;;107507;283;175281;-35
2023/04/27 15:32:37;;;;;;;2.70;1.10;;;;;;;;;;107600;285;44244;-35
2023/04/27 15:35:13;;;;;;;3.30;1.30;;;;;;;;;;107599;285;43422;-36
2023/04/27 15:37:47;;;;;;;3.20;1.20;;;;;;;;;;107617;285;44962;-35